sensor_id;sensor_type;location;lat;lon;timestamp;pressure;altitude;pressure_sealevel;temperature;humidity
64228;BME280;50546;49.146;10.616;2022-07-12T00:01:34;97018.13;;;17.01;68.10
64228;BME280;50546;49.146;10.616;2022-07-12T00:03:59;97019.38;;;17.03;68.08
64228;BME280;50546;49.146;10.616;2022-07-12T00:06:25;97022.31;;;17.11;67.40
64228;BME280;50546;49.146;10.616;2022-07-12T00:08:50;97017.56;;;17.07;67.35
64228;BME280;50546;49.146;10.616;2022-07-12T00:11:15;97013.34;;;16.98;67.63
64228;BME280;50546;49.146;10.616;2022-07-12T00:13:41;97018.66;;;17.06;67.14
64228;BME280;50546;49.146;10.616;2022-07-12T00:16:06;97019.69;;;17.02;67.00
64228;BME280;50546;49.146;10.616;2022-07-12T00:18:32;97019.47;;;16.95;67.39
64228;BME280;50546;49.146;10.616;2022-07-12T00:20:57;97018.44;;;16.87;67.73
64228;BME280;50546;49.146;10.616;2022-07-12T00:23:23;97019.00;;;16.80;67.71
64228;BME280;50546;49.146;10.616;2022-07-12T00:25:48;97015.59;;;16.83;68.08
64228;BME280;50546;49.146;10.616;2022-07-12T00:28:13;97020.72;;;16.85;68.27
64228;BME280;50546;49.146;10.616;2022-07-12T00:30:39;97020.25;;;16.83;68.06
64228;BME280;50546;49.146;10.616;2022-07-12T00:33:04;97017.78;;;16.90;67.86
64228;BME280;50546;49.146;10.616;2022-07-12T00:35:29;97023.88;;;16.87;68.00
64228;BME280;50546;49.146;10.616;2022-07-12T00:37:55;97017.06;;;16.81;68.37
64228;BME280;50546;49.146;10.616;2022-07-12T00:40:20;97017.16;;;16.72;68.75
64228;BME280;50546;49.146;10.616;2022-07-12T00:42:45;97021.66;;;16.56;69.17
64228;BME280;50546;49.146;10.616;2022-07-12T00:45:11;97019.56;;;16.74;68.69
64228;BME280;50546;49.146;10.616;2022-07-12T00:47:43;97018.25;;;16.92;68.33
64228;BME280;50546;49.146;10.616;2022-07-12T00:50:16;97022.31;;;16.86;68.54
64228;BME280;50546;49.146;10.616;2022-07-12T00:52:43;97016.50;;;16.75;68.59
64228;BME280;50546;49.146;10.616;2022-07-12T00:55:10;97019.22;;;16.88;68.45
64228;BME280;50546;49.146;10.616;2022-07-12T00:57:36;97012.56;;;16.97;68.42
64228;BME280;50546;49.146;10.616;2022-07-12T01:00:04;97010.38;;;17.03;67.79
64228;BME280;50546;49.146;10.616;2022-07-12T01:02:30;97005.66;;;17.00;67.83
64228;BME280;50546;49.146;10.616;2022-07-12T01:04:56;97010.31;;;16.99;68.11
64228;BME280;50546;49.146;10.616;2022-07-12T01:07:23;97014.81;;;16.95;67.83
64228;BME280;50546;49.146;10.616;2022-07-12T01:09:54;97008.25;;;17.08;67.22
64228;BME280;50546;49.146;10.616;2022-07-12T01:12:21;97000.06;;;17.08;67.28
64228;BME280;50546;49.146;10.616;2022-07-12T01:14:47;96999.50;;;17.03;67.64
64228;BME280;50546;49.146;10.616;2022-07-12T01:17:14;96995.97;;;17.02;67.71
64228;BME280;50546;49.146;10.616;2022-07-12T01:19:40;97002.78;;;16.84;68.46
64228;BME280;50546;49.146;10.616;2022-07-12T01:22:14;96998.94;;;16.85;67.89
64228;BME280;50546;49.146;10.616;2022-07-12T01:24:40;97002.47;;;16.86;68.33
64228;BME280;50546;49.146;10.616;2022-07-12T01:27:07;97008.03;;;16.89;68.05
64228;BME280;50546;49.146;10.616;2022-07-12T01:29:32;97005.38;;;16.80;68.02
64228;BME280;50546;49.146;10.616;2022-07-12T01:32:02;96998.84;;;16.81;68.39
64228;BME280;50546;49.146;10.616;2022-07-12T01:34:48;96999.84;;;16.89;67.80
64228;BME280;50546;49.146;10.616;2022-07-12T01:37:14;97002.47;;;16.86;68.00
64228;BME280;50546;49.146;10.616;2022-07-12T01:39:40;97000.81;;;16.72;68.45
64228;BME280;50546;49.146;10.616;2022-07-12T01:42:06;97000.81;;;16.60;69.14
64228;BME280;50546;49.146;10.616;2022-07-12T01:44:32;96996.59;;;16.63;68.50
64228;BME280;50546;49.146;10.616;2022-07-12T01:46:58;97006.81;;;16.66;68.33
64228;BME280;50546;49.146;10.616;2022-07-12T01:49:23;97001.84;;;16.68;68.20
64228;BME280;50546;49.146;10.616;2022-07-12T01:51:49;97011.50;;;16.77;67.96
64228;BME280;50546;49.146;10.616;2022-07-12T01:54:14;97005.06;;;16.82;67.86
64228;BME280;50546;49.146;10.616;2022-07-12T01:56:40;97001.63;;;16.73;68.24
64228;BME280;50546;49.146;10.616;2022-07-12T01:59:05;97007.66;;;16.78;68.01
64228;BME280;50546;49.146;10.616;2022-07-12T02:01:32;97000.03;;;16.72;68.27
64228;BME280;50546;49.146;10.616;2022-07-12T02:04:02;97009.78;;;16.73;67.45
64228;BME280;50546;49.146;10.616;2022-07-12T02:06:28;97012.50;;;16.73;67.68
64228;BME280;50546;49.146;10.616;2022-07-12T02:08:53;97012.38;;;16.69;67.56
64228;BME280;50546;49.146;10.616;2022-07-12T02:11:18;97015.22;;;16.60;67.85
64228;BME280;50546;49.146;10.616;2022-07-12T02:13:44;97018.50;;;16.66;68.62
64228;BME280;50546;49.146;10.616;2022-07-12T02:16:09;97019.66;;;16.77;67.99
64228;BME280;50546;49.146;10.616;2022-07-12T02:18:34;97016.00;;;16.73;68.14
64228;BME280;50546;49.146;10.616;2022-07-12T02:21:00;97022.34;;;16.65;68.58
64228;BME280;50546;49.146;10.616;2022-07-12T02:23:25;97016.81;;;16.74;68.01
64228;BME280;50546;49.146;10.616;2022-07-12T02:25:50;97018.72;;;16.73;68.12
64228;BME280;50546;49.146;10.616;2022-07-12T02:28:16;97012.38;;;16.69;68.24
64228;BME280;50546;49.146;10.616;2022-07-12T02:30:41;97011.94;;;16.67;67.94
64228;BME280;50546;49.146;10.616;2022-07-12T02:33:06;97014.84;;;16.50;68.78
64228;BME280;50546;49.146;10.616;2022-07-12T02:35:32;97008.38;;;16.54;68.44
64228;BME280;50546;49.146;10.616;2022-07-12T02:37:57;97006.34;;;16.51;68.36
64228;BME280;50546;49.146;10.616;2022-07-12T02:40:22;97008.16;;;16.47;68.37
64228;BME280;50546;49.146;10.616;2022-07-12T02:43:06;97009.13;;;16.30;69.00
64228;BME280;50546;49.146;10.616;2022-07-12T02:45:31;97011.94;;;16.22;68.94
64228;BME280;50546;49.146;10.616;2022-07-12T02:47:57;97010.84;;;16.02;70.00
64228;BME280;50546;49.146;10.616;2022-07-12T02:50:22;97006.88;;;15.99;69.60
64228;BME280;50546;49.146;10.616;2022-07-12T02:52:47;97009.53;;;15.87;69.67
64228;BME280;50546;49.146;10.616;2022-07-12T02:55:13;97008.19;;;15.93;69.84
64228;BME280;50546;49.146;10.616;2022-07-12T02:57:38;97012.69;;;15.89;70.18
64228;BME280;50546;49.146;10.616;2022-07-12T03:00:03;97007.53;;;15.75;70.09
64228;BME280;50546;49.146;10.616;2022-07-12T03:02:30;97010.25;;;15.75;70.26
64228;BME280;50546;49.146;10.616;2022-07-12T03:04:57;97014.66;;;15.59;70.44
64228;BME280;50546;49.146;10.616;2022-07-12T03:07:22;97010.75;;;15.48;71.30
64228;BME280;50546;49.146;10.616;2022-07-12T03:09:48;97008.75;;;15.57;70.42
64228;BME280;50546;49.146;10.616;2022-07-12T03:12:13;97014.31;;;15.60;70.67
64228;BME280;50546;49.146;10.616;2022-07-12T03:14:38;97010.38;;;15.58;70.73
64228;BME280;50546;49.146;10.616;2022-07-12T03:17:04;97010.16;;;15.42;71.33
64228;BME280;50546;49.146;10.616;2022-07-12T03:19:29;97015.84;;;15.49;71.10
64228;BME280;50546;49.146;10.616;2022-07-12T03:21:54;97017.16;;;15.43;70.91
64228;BME280;50546;49.146;10.616;2022-07-12T03:24:19;97023.00;;;15.33;72.37
64228;BME280;50546;49.146;10.616;2022-07-12T03:26:45;97022.59;;;15.43;71.08
64228;BME280;50546;49.146;10.616;2022-07-12T03:29:10;97015.41;;;15.47;71.00
64228;BME280;50546;49.146;10.616;2022-07-12T03:31:36;97020.41;;;15.57;70.75
64228;BME280;50546;49.146;10.616;2022-07-12T03:34:01;97021.94;;;15.46;71.03
64228;BME280;50546;49.146;10.616;2022-07-12T03:36:26;97025.72;;;15.33;71.57
64228;BME280;50546;49.146;10.616;2022-07-12T03:38:52;97021.00;;;15.42;70.55
64228;BME280;50546;49.146;10.616;2022-07-12T03:41:17;97027.22;;;15.43;71.22
64228;BME280;50546;49.146;10.616;2022-07-12T03:43:42;97024.38;;;15.39;70.88
64228;BME280;50546;49.146;10.616;2022-07-12T03:46:07;97025.72;;;15.33;70.82
64228;BME280;50546;49.146;10.616;2022-07-12T03:48:33;97023.94;;;15.37;71.17
64228;BME280;50546;49.146;10.616;2022-07-12T03:50:58;97023.13;;;15.36;71.78
64228;BME280;50546;49.146;10.616;2022-07-12T03:53:23;97027.63;;;15.32;72.11
64228;BME280;50546;49.146;10.616;2022-07-12T03:55:49;97028.22;;;15.38;71.96
64228;BME280;50546;49.146;10.616;2022-07-12T03:58:14;97024.19;;;15.44;71.15
64228;BME280;50546;49.146;10.616;2022-07-12T04:00:39;97028.78;;;15.52;70.84
64228;BME280;50546;49.146;10.616;2022-07-12T04:03:09;97030.94;;;15.38;72.35
64228;BME280;50546;49.146;10.616;2022-07-12T04:05:36;97029.50;;;15.40;72.52
64228;BME280;50546;49.146;10.616;2022-07-12T04:08:01;97033.66;;;15.38;72.17
64228;BME280;50546;49.146;10.616;2022-07-12T04:10:27;97031.22;;;15.45;72.41
64228;BME280;50546;49.146;10.616;2022-07-12T04:12:53;97027.91;;;15.60;71.29
64228;BME280;50546;49.146;10.616;2022-07-12T04:15:18;97021.09;;;15.54;72.46
64228;BME280;50546;49.146;10.616;2022-07-12T04:17:43;97032.06;;;15.67;71.48
64228;BME280;50546;49.146;10.616;2022-07-12T04:20:09;97033.91;;;15.75;71.59
64228;BME280;50546;49.146;10.616;2022-07-12T04:22:35;97032.59;;;15.81;71.88
64228;BME280;50546;49.146;10.616;2022-07-12T04:25:00;97034.31;;;15.85;71.37
64228;BME280;50546;49.146;10.616;2022-07-12T04:27:26;97035.50;;;15.76;71.61
64228;BME280;50546;49.146;10.616;2022-07-12T04:29:54;97052.19;;;15.86;71.45
64228;BME280;50546;49.146;10.616;2022-07-12T04:32:19;97049.06;;;15.76;70.76
64228;BME280;50546;49.146;10.616;2022-07-12T04:34:44;97059.72;;;15.69;71.51
64228;BME280;50546;49.146;10.616;2022-07-12T04:37:10;97064.66;;;15.67;71.43
64228;BME280;50546;49.146;10.616;2022-07-12T04:39:35;97057.00;;;15.60;71.02
64228;BME280;50546;49.146;10.616;2022-07-12T04:42:01;97063.88;;;15.57;71.00
64228;BME280;50546;49.146;10.616;2022-07-12T04:44:26;97060.75;;;15.47;71.27
64228;BME280;50546;49.146;10.616;2022-07-12T04:46:52;97059.44;;;15.53;71.20
64228;BME280;50546;49.146;10.616;2022-07-12T04:49:17;97064.34;;;15.59;71.20
64228;BME280;50546;49.146;10.616;2022-07-12T04:51:42;97069.78;;;15.59;70.94
64228;BME280;50546;49.146;10.616;2022-07-12T04:54:08;97069.31;;;15.57;71.17
64228;BME280;50546;49.146;10.616;2022-07-12T04:56:34;97071.69;;;15.68;70.87
64228;BME280;50546;49.146;10.616;2022-07-12T04:58:59;97080.31;;;15.61;70.98
64228;BME280;50546;49.146;10.616;2022-07-12T05:01:25;97085.25;;;15.68;70.73
64228;BME280;50546;49.146;10.616;2022-07-12T05:03:50;97082.38;;;15.73;71.13
64228;BME280;50546;49.146;10.616;2022-07-12T05:06:16;97075.81;;;15.74;71.53
64228;BME280;50546;49.146;10.616;2022-07-12T05:08:41;97085.16;;;15.85;71.32
64228;BME280;50546;49.146;10.616;2022-07-12T05:11:06;97087.53;;;15.86;71.52
64228;BME280;50546;49.146;10.616;2022-07-12T05:13:32;97084.88;;;15.99;71.25
64228;BME280;50546;49.146;10.616;2022-07-12T05:15:58;97088.28;;;15.96;71.92
64228;BME280;50546;49.146;10.616;2022-07-12T05:18:24;97087.09;;;16.05;72.15
64228;BME280;50546;49.146;10.616;2022-07-12T05:20:49;97094.88;;;16.28;70.88
64228;BME280;50546;49.146;10.616;2022-07-12T05:23:14;97094.88;;;16.28;70.90
64228;BME280;50546;49.146;10.616;2022-07-12T05:25:40;97086.47;;;16.42;70.51
64228;BME280;50546;49.146;10.616;2022-07-12T05:28:05;97089.97;;;16.42;70.28
64228;BME280;50546;49.146;10.616;2022-07-12T05:30:31;97082.44;;;16.27;70.23
64228;BME280;50546;49.146;10.616;2022-07-12T05:32:56;97096.47;;;16.29;70.52
64228;BME280;50546;49.146;10.616;2022-07-12T05:35:22;97094.28;;;16.43;70.27
64228;BME280;50546;49.146;10.616;2022-07-12T05:37:47;97097.50;;;16.57;70.30
64228;BME280;50546;49.146;10.616;2022-07-12T05:40:12;97092.81;;;16.46;70.15
64228;BME280;50546;49.146;10.616;2022-07-12T05:42:38;97095.25;;;16.59;70.29
64228;BME280;50546;49.146;10.616;2022-07-12T05:45:04;97091.03;;;16.83;69.63
64228;BME280;50546;49.146;10.616;2022-07-12T05:47:30;97083.31;;;16.85;69.20
64228;BME280;50546;49.146;10.616;2022-07-12T05:49:55;97097.59;;;16.82;69.67
64228;BME280;50546;49.146;10.616;2022-07-12T05:52:21;97092.16;;;16.82;70.15
64228;BME280;50546;49.146;10.616;2022-07-12T05:55:05;97096.00;;;16.81;70.16
64228;BME280;50546;49.146;10.616;2022-07-12T05:57:30;97104.31;;;16.64;70.48
64228;BME280;50546;49.146;10.616;2022-07-12T05:59:56;97106.09;;;16.80;69.81
64228;BME280;50546;49.146;10.616;2022-07-12T06:02:21;97107.28;;;16.71;70.41
64228;BME280;50546;49.146;10.616;2022-07-12T06:04:47;97102.13;;;16.78;70.07
64228;BME280;50546;49.146;10.616;2022-07-12T06:07:13;97095.75;;;16.74;70.49
64228;BME280;50546;49.146;10.616;2022-07-12T06:09:38;97109.41;;;16.86;70.02
64228;BME280;50546;49.146;10.616;2022-07-12T06:12:03;97103.97;;;16.86;70.56
64228;BME280;50546;49.146;10.616;2022-07-12T06:14:29;97097.53;;;17.15;69.66
64228;BME280;50546;49.146;10.616;2022-07-12T06:16:55;97100.59;;;17.38;69.04
64228;BME280;50546;49.146;10.616;2022-07-12T06:19:20;97100.16;;;17.61;68.03
64228;BME280;50546;49.146;10.616;2022-07-12T06:21:45;97102.66;;;17.53;67.90
64228;BME280;50546;49.146;10.616;2022-07-12T06:24:10;97107.66;;;17.27;68.55
64228;BME280;50546;49.146;10.616;2022-07-12T06:26:36;97105.16;;;17.46;68.70
64228;BME280;50546;49.146;10.616;2022-07-12T06:29:01;97104.34;;;17.70;68.04
64228;BME280;50546;49.146;10.616;2022-07-12T06:31:27;97104.13;;;17.63;67.51
64228;BME280;50546;49.146;10.616;2022-07-12T06:33:52;97106.97;;;17.54;67.68
64228;BME280;50546;49.146;10.616;2022-07-12T06:36:17;97105.59;;;17.61;67.70
64228;BME280;50546;49.146;10.616;2022-07-12T06:38:42;97112.16;;;17.72;67.70
64228;BME280;50546;49.146;10.616;2022-07-12T06:41:08;97099.56;;;17.92;67.17
64228;BME280;50546;49.146;10.616;2022-07-12T06:43:33;97104.09;;;18.00;66.64
64228;BME280;50546;49.146;10.616;2022-07-12T06:45:59;97106.66;;;18.21;66.66
64228;BME280;50546;49.146;10.616;2022-07-12T06:48:24;97113.47;;;18.55;64.07
64228;BME280;50546;49.146;10.616;2022-07-12T06:50:49;97109.81;;;18.35;64.52
64228;BME280;50546;49.146;10.616;2022-07-12T06:53:15;97115.22;;;18.19;64.79
64228;BME280;50546;49.146;10.616;2022-07-12T06:55:43;97116.09;;;18.23;64.47
64228;BME280;50546;49.146;10.616;2022-07-12T06:58:08;97124.81;;;18.29;63.97
64228;BME280;50546;49.146;10.616;2022-07-12T07:00:33;97127.13;;;18.27;64.19
64228;BME280;50546;49.146;10.616;2022-07-12T07:02:59;97128.19;;;18.66;63.88
64228;BME280;50546;49.146;10.616;2022-07-12T07:05:24;97132.00;;;18.90;63.16
64228;BME280;50546;49.146;10.616;2022-07-12T07:07:49;97128.84;;;19.04;63.08
64228;BME280;50546;49.146;10.616;2022-07-12T07:10:15;97121.19;;;19.09;62.75
64228;BME280;50546;49.146;10.616;2022-07-12T07:12:40;97128.84;;;19.19;62.16
64228;BME280;50546;49.146;10.616;2022-07-12T07:15:06;97115.53;;;19.49;61.81
64228;BME280;50546;49.146;10.616;2022-07-12T07:17:32;97132.19;;;19.60;61.59
64228;BME280;50546;49.146;10.616;2022-07-12T07:19:57;97123.41;;;19.83;60.11
64228;BME280;50546;49.146;10.616;2022-07-12T07:22:22;97134.44;;;20.06;59.43
64228;BME280;50546;49.146;10.616;2022-07-12T07:24:48;97131.66;;;20.22;58.83
64228;BME280;50546;49.146;10.616;2022-07-12T07:27:13;97137.06;;;20.18;58.88
64228;BME280;50546;49.146;10.616;2022-07-12T07:29:38;97126.41;;;20.13;59.01
64228;BME280;50546;49.146;10.616;2022-07-12T07:32:22;97135.84;;;19.80;57.95
64228;BME280;50546;49.146;10.616;2022-07-12T07:34:48;97134.50;;;19.58;59.20
64228;BME280;50546;49.146;10.616;2022-07-12T07:37:13;97136.53;;;19.77;58.60
64228;BME280;50546;49.146;10.616;2022-07-12T07:39:39;97139.09;;;19.70;57.79
64228;BME280;50546;49.146;10.616;2022-07-12T07:42:04;97142.88;;;19.49;58.68
64228;BME280;50546;49.146;10.616;2022-07-12T07:44:30;97152.75;;;19.38;60.12
64228;BME280;50546;49.146;10.616;2022-07-12T07:46:55;97150.47;;;19.40;60.02
64228;BME280;50546;49.146;10.616;2022-07-12T07:49:21;97143.16;;;19.29;59.61
64228;BME280;50546;49.146;10.616;2022-07-12T07:51:47;97150.22;;;19.61;59.45
64228;BME280;50546;49.146;10.616;2022-07-12T07:54:12;97160.00;;;19.46;59.14
64228;BME280;50546;49.146;10.616;2022-07-12T07:56:37;97154.34;;;19.55;57.89
64228;BME280;50546;49.146;10.616;2022-07-12T07:59:02;97149.88;;;19.63;58.26
64228;BME280;50546;49.146;10.616;2022-07-12T08:01:28;97152.94;;;19.77;57.82
64228;BME280;50546;49.146;10.616;2022-07-12T08:04:14;97158.91;;;19.99;57.02
64228;BME280;50546;49.146;10.616;2022-07-12T08:06:39;97156.56;;;20.16;57.00
64228;BME280;50546;49.146;10.616;2022-07-12T08:09:05;97153.53;;;20.57;55.04
64228;BME280;50546;49.146;10.616;2022-07-12T08:11:31;97156.25;;;20.37;55.61
64228;BME280;50546;49.146;10.616;2022-07-12T08:13:56;97149.59;;;20.19;55.17
64228;BME280;50546;49.146;10.616;2022-07-12T08:16:22;97158.59;;;20.19;55.16
64228;BME280;50546;49.146;10.616;2022-07-12T08:18:47;97146.88;;;20.19;55.10
64228;BME280;50546;49.146;10.616;2022-07-12T08:21:12;97148.75;;;19.99;55.72
64228;BME280;50546;49.146;10.616;2022-07-12T08:23:38;97134.75;;;20.20;55.58
64228;BME280;50546;49.146;10.616;2022-07-12T08:26:03;97143.47;;;20.26;55.19
64228;BME280;50546;49.146;10.616;2022-07-12T08:28:28;97144.47;;;20.53;54.91
64228;BME280;50546;49.146;10.616;2022-07-12T08:30:53;97135.47;;;21.14;53.27
64228;BME280;50546;49.146;10.616;2022-07-12T08:33:19;97137.97;;;21.23;51.73
64228;BME280;50546;49.146;10.616;2022-07-12T08:35:44;97132.53;;;21.26;52.77
64228;BME280;50546;49.146;10.616;2022-07-12T08:38:09;97131.97;;;21.86;50.95
64228;BME280;50546;49.146;10.616;2022-07-12T08:40:35;97128.97;;;21.95;49.98
64228;BME280;50546;49.146;10.616;2022-07-12T08:43:01;97127.75;;;22.19;50.27
64228;BME280;50546;49.146;10.616;2022-07-12T08:45:26;97134.47;;;22.51;49.81
64228;BME280;50546;49.146;10.616;2022-07-12T08:47:52;97129.72;;;22.82;49.27
64228;BME280;50546;49.146;10.616;2022-07-12T08:50:19;97126.22;;;23.22;47.36
64228;BME280;50546;49.146;10.616;2022-07-12T08:52:46;97129.28;;;23.58;46.37
64228;BME280;50546;49.146;10.616;2022-07-12T08:55:30;97129.50;;;23.35;46.78
64228;BME280;50546;49.146;10.616;2022-07-12T08:57:57;97127.03;;;23.71;46.92
64228;BME280;50546;49.146;10.616;2022-07-12T09:00:24;97132.59;;;23.34;47.06
64228;BME280;50546;49.146;10.616;2022-07-12T09:02:54;97134.41;;;22.48;47.99
64228;BME280;50546;49.146;10.616;2022-07-12T09:05:22;97141.16;;;21.97;48.94
64228;BME280;50546;49.146;10.616;2022-07-12T09:07:49;97152.19;;;21.51;50.61
64228;BME280;50546;49.146;10.616;2022-07-12T09:10:15;97155.31;;;21.50;51.04
64228;BME280;50546;49.146;10.616;2022-07-12T09:12:42;97153.94;;;21.63;50.60
64228;BME280;50546;49.146;10.616;2022-07-12T09:17:41;97152.59;;;22.29;48.23
64228;BME280;50546;49.146;10.616;2022-07-12T09:20:11;97149.56;;;22.68;45.57
64228;BME280;50546;49.146;10.616;2022-07-12T09:22:37;97139.34;;;22.69;45.62
64228;BME280;50546;49.146;10.616;2022-07-12T09:25:16;97140.25;;;23.10;46.21
64228;BME280;50546;49.146;10.616;2022-07-12T09:27:59;97140.81;;;23.74;43.95
64228;BME280;50546;49.146;10.616;2022-07-12T09:30:28;97131.03;;;24.39;43.39
64228;BME280;50546;49.146;10.616;2022-07-12T09:32:57;97129.22;;;24.79;43.05
64228;BME280;50546;49.146;10.616;2022-07-12T09:35:41;97134.06;;;25.11;40.95
64228;BME280;50546;49.146;10.616;2022-07-12T09:38:26;97131.34;;;25.68;39.52
64228;BME280;50546;49.146;10.616;2022-07-12T09:40:53;97135.72;;;25.87;39.57
64228;BME280;50546;49.146;10.616;2022-07-12T09:43:21;97131.72;;;25.31;41.01
64228;BME280;50546;49.146;10.616;2022-07-12T09:45:47;97139.78;;;24.59;41.99
64228;BME280;50546;49.146;10.616;2022-07-12T09:48:12;97140.28;;;23.58;43.31
64228;BME280;50546;49.146;10.616;2022-07-12T09:50:39;97140.78;;;23.26;44.48
64228;BME280;50546;49.146;10.616;2022-07-12T09:53:05;97142.56;;;23.08;43.75
64228;BME280;50546;49.146;10.616;2022-07-12T09:55:32;97134.41;;;23.15;43.48
64228;BME280;50546;49.146;10.616;2022-07-12T09:58:01;97130.28;;;22.98;43.50
64228;BME280;50546;49.146;10.616;2022-07-12T10:00:28;97143.13;;;22.91;44.00
64228;BME280;50546;49.146;10.616;2022-07-12T10:02:55;97135.47;;;23.03;45.81
64228;BME280;50546;49.146;10.616;2022-07-12T10:05:21;97132.34;;;22.71;46.68
64228;BME280;50546;49.146;10.616;2022-07-12T10:07:49;97137.53;;;22.80;46.71
64228;BME280;50546;49.146;10.616;2022-07-12T10:10:16;97141.56;;;22.90;46.14
64228;BME280;50546;49.146;10.616;2022-07-12T10:12:42;97149.59;;;22.72;45.96
64228;BME280;50546;49.146;10.616;2022-07-12T10:15:17;97143.75;;;22.73;46.05
64228;BME280;50546;49.146;10.616;2022-07-12T10:17:51;97134.97;;;23.32;44.31
64228;BME280;50546;49.146;10.616;2022-07-12T10:20:20;97137.56;;;22.83;43.36
64228;BME280;50546;49.146;10.616;2022-07-12T10:22:52;97146.25;;;22.52;44.70
64228;BME280;50546;49.146;10.616;2022-07-12T10:25:32;97132.06;;;22.83;43.06
64228;BME280;50546;49.146;10.616;2022-07-12T10:27:58;97142.22;;;23.10;42.50
64228;BME280;50546;49.146;10.616;2022-07-12T10:30:24;97134.41;;;23.15;40.15
64228;BME280;50546;49.146;10.616;2022-07-12T10:32:51;97134.88;;;22.91;41.95
64228;BME280;50546;49.146;10.616;2022-07-12T10:35:22;97129.22;;;23.51;42.14
64228;BME280;50546;49.146;10.616;2022-07-12T10:38:14;97127.13;;;24.44;41.96
64228;BME280;50546;49.146;10.616;2022-07-12T10:40:41;97119.53;;;24.26;40.21
64228;BME280;50546;49.146;10.616;2022-07-12T10:45:42;97122.81;;;24.54;42.10
64228;BME280;50546;49.146;10.616;2022-07-12T10:48:19;97117.91;;;24.15;41.53
64228;BME280;50546;49.146;10.616;2022-07-12T10:58:30;97119.88;;;23.63;43.68
64228;BME280;50546;49.146;10.616;2022-07-12T11:00:55;97116.91;;;23.82;43.24
64228;BME280;50546;49.146;10.616;2022-07-12T11:03:22;97121.94;;;24.35;42.95
64228;BME280;50546;49.146;10.616;2022-07-12T11:05:47;97116.16;;;24.58;41.60
64228;BME280;50546;49.146;10.616;2022-07-12T11:08:16;97110.28;;;24.63;40.18
64228;BME280;50546;49.146;10.616;2022-07-12T11:10:54;97108.41;;;25.03;38.39
64228;BME280;50546;49.146;10.616;2022-07-12T11:13:24;97100.94;;;25.07;38.83
64228;BME280;50546;49.146;10.616;2022-07-12T11:15:59;97104.13;;;25.45;38.25
64228;BME280;50546;49.146;10.616;2022-07-12T11:18:34;97096.25;;;25.65;36.25
64228;BME280;50546;49.146;10.616;2022-07-12T11:21:01;97102.56;;;25.73;38.47
64228;BME280;50546;49.146;10.616;2022-07-12T11:23:27;97104.16;;;25.81;38.25
64228;BME280;50546;49.146;10.616;2022-07-12T11:25:57;97096.25;;;25.36;36.85
64228;BME280;50546;49.146;10.616;2022-07-12T11:28:24;97097.81;;;25.52;38.00
64228;BME280;50546;49.146;10.616;2022-07-12T11:30:50;97089.50;;;26.05;37.28
64228;BME280;50546;49.146;10.616;2022-07-12T11:33:16;97097.03;;;25.69;37.27
64228;BME280;50546;49.146;10.616;2022-07-12T11:35:43;97102.56;;;25.73;37.95
64228;BME280;50546;49.146;10.616;2022-07-12T11:38:10;97100.97;;;25.75;38.86
64228;BME280;50546;49.146;10.616;2022-07-12T11:40:35;97101.78;;;25.68;38.28
64228;BME280;50546;49.146;10.616;2022-07-12T11:43:02;97093.88;;;25.63;37.25
64228;BME280;50546;49.146;10.616;2022-07-12T11:45:29;97101.78;;;25.36;37.82
64228;BME280;50546;49.146;10.616;2022-07-12T11:47:57;97099.34;;;24.99;38.85
64228;BME280;50546;49.146;10.616;2022-07-12T11:50:23;97096.16;;;24.90;38.00
64228;BME280;50546;49.146;10.616;2022-07-12T11:52:48;97102.09;;;24.99;37.88
64228;BME280;50546;49.146;10.616;2022-07-12T11:55:14;97099.41;;;25.17;37.35
64228;BME280;50546;49.146;10.616;2022-07-12T11:57:39;97091.53;;;25.55;37.41
64228;BME280;50546;49.146;10.616;2022-07-12T12:00:18;97097.03;;;25.65;37.03
64228;BME280;50546;49.146;10.616;2022-07-12T12:02:44;97087.56;;;25.77;37.62
64228;BME280;50546;49.146;10.616;2022-07-12T12:05:10;97084.38;;;26.14;36.97
64228;BME280;50546;49.146;10.616;2022-07-12T12:07:36;97089.50;;;26.05;36.97
64228;BME280;50546;49.146;10.616;2022-07-12T12:10:05;97086.00;;;25.94;36.96
64228;BME280;50546;49.146;10.616;2022-07-12T12:15:11;97088.97;;;26.50;35.17
64228;BME280;50546;49.146;10.616;2022-07-12T12:17:41;97080.41;;;26.15;36.12
64228;BME280;50546;49.146;10.616;2022-07-12T12:20:11;97075.97;;;26.36;35.01
64228;BME280;50546;49.146;10.616;2022-07-12T12:22:38;97082.44;;;26.92;35.75
64228;BME280;50546;49.146;10.616;2022-07-12T12:25:04;97078.78;;;27.09;34.71
64228;BME280;50546;49.146;10.616;2022-07-12T12:27:30;97070.81;;;27.22;34.67
64228;BME280;50546;49.146;10.616;2022-07-12T12:30:06;97076.03;;;27.62;34.27
64228;BME280;50546;49.146;10.616;2022-07-12T12:32:55;97081.03;;;27.29;34.03
64228;BME280;50546;49.146;10.616;2022-07-12T12:35:22;97071.06;;;27.42;35.17
64228;BME280;50546;49.146;10.616;2022-07-12T12:38:12;97070.06;;;27.63;34.72
64228;BME280;50546;49.146;10.616;2022-07-12T12:40:38;97068.84;;;27.68;33.84
64228;BME280;50546;49.146;10.616;2022-07-12T12:43:11;97067.09;;;27.43;34.09
64228;BME280;50546;49.146;10.616;2022-07-12T12:45:51;97064.00;;;27.30;32.73
64228;BME280;50546;49.146;10.616;2022-07-12T12:50:51;97058.28;;;27.52;33.20
64228;BME280;50546;49.146;10.616;2022-07-12T12:53:24;97060.91;;;27.25;32.69
64228;BME280;50546;49.146;10.616;2022-07-12T12:55:51;97068.13;;;27.11;34.26
64228;BME280;50546;49.146;10.616;2022-07-12T12:58:18;97061.13;;;26.89;33.64
64228;BME280;50546;49.146;10.616;2022-07-12T13:00:45;97064.19;;;27.05;34.54
64228;BME280;50546;49.146;10.616;2022-07-12T13:03:13;97063.69;;;26.58;34.46
64228;BME280;50546;49.146;10.616;2022-07-12T13:05:39;97055.06;;;27.12;34.24
64228;BME280;50546;49.146;10.616;2022-07-12T13:08:07;97062.88;;;27.28;34.07